Time;durP1;ratioP1;P1;durP2;ratioP2;P2;SDS_P1;SDS_P2;PMS_P1;PMS_P2;Temp;Humidity;BMP_temperature;BMP_pressure;BME280_temperature;BME280_humidity;BME280_pressure;Samples;Min_cycle;Max_cycle;Signal;HPM_P1;HPM_P2
2022/07/06 00:01:43;;;;;;;2.63;1.25;;;;;;;;;;5058035;28;20029;-82
2022/07/06 00:04:09;;;;;;;2.17;1.30;;;;;;;;;;5037497;28;20098;-80
2022/07/06 00:06:35;;;;;;;3.65;1.40;;;;;;;;;;5051668;28;20028;-80
2022/07/06 00:09:01;;;;;;;1.70;1.38;;;;;;;;;;5055581;28;20040;-81
2022/07/06 00:11:27;;;;;;;2.08;1.45;;;;;;;;;;5035517;28;20379;-80
2022/07/06 00:13:53;;;;;;;3.35;1.52;;;;;;;;;;5039779;28;20118;-81
2022/07/06 00:16:20;;;;;;;3.05;1.60;;;;;;;;;;5051836;28;20033;-81
2022/07/06 00:18:46;;;;;;;1.83;1.30;;;;;;;;;;5051296;28;20696;-80
2022/07/06 00:21:12;;;;;;;2.08;1.25;;;;;;;;;;5056017;28;20025;-81
2022/07/06 00:23:38;;;;;;;2.47;1.50;;;;;;;;;;5051193;28;20128;-80
2022/07/06 00:26:04;;;;;;;1.95;1.45;;;;;;;;;;5056489;28;20680;-80
2022/07/06 00:28:30;;;;;;;2.28;1.40;;;;;;;;;;5035778;28;20017;-81
2022/07/06 00:30:56;;;;;;;3.75;1.40;;;;;;;;;;5054738;28;20391;-81
2022/07/06 00:33:22;;;;;;;2.90;1.38;;;;;;;;;;5052028;28;20073;-82
2022/07/06 00:35:48;;;;;;;1.80;1.38;;;;;;;;;;5054716;28;20043;-82
2022/07/06 00:38:14;;;;;;;2.88;1.65;;;;;;;;;;5036536;28;20033;-81
2022/07/06 00:40:40;;;;;;;3.38;1.60;;;;;;;;;;5036913;28;20033;-81
2022/07/06 00:43:06;;;;;;;2.30;1.50;;;;;;;;;;5037963;28;20033;-80
2022/07/06 00:45:32;;;;;;;2.25;1.50;;;;;;;;;;5056745;28;20028;-80
2022/07/06 00:47:58;;;;;;;4.53;1.65;;;;;;;;;;5057220;28;20018;-81
2022/07/06 00:50:25;;;;;;;3.95;1.80;;;;;;;;;;5056859;28;20506;-80
2022/07/06 00:52:55;;;;;;;2.58;1.83;;;;;;;;;;5040723;28;20036;-80
2022/07/06 00:55:22;;;;;;;2.03;1.42;;;;;;;;;;5041758;28;20561;-80
2022/07/06 00:57:49;;;;;;;3.00;1.70;;;;;;;;;;5057241;28;20101;-80
2022/07/06 01:00:16;;;;;;;2.33;1.73;;;;;;;;;;5057036;28;20033;-81
2022/07/06 01:02:42;;;;;;;2.67;1.73;;;;;;;;;;5051595;28;20068;-81
2022/07/06 01:05:09;;;;;;;4.07;1.70;;;;;;;;;;5052040;28;20095;-80
2022/07/06 01:07:36;;;;;;;3.22;1.60;;;;;;;;;;5051251;28;20033;-81
2022/07/06 01:10:02;;;;;;;3.55;2.05;;;;;;;;;;5044255;28;20036;-81
2022/07/06 01:12:28;;;;;;;2.33;1.70;;;;;;;;;;5041862;28;20457;-81
2022/07/06 01:14:55;;;;;;;3.20;1.90;;;;;;;;;;5056612;28;20056;-80
2022/07/06 01:17:21;;;;;;;3.63;2.03;;;;;;;;;;5060710;28;20028;-81
2022/07/06 01:19:47;;;;;;;3.28;1.98;;;;;;;;;;5056009;28;20378;-80
2022/07/06 01:22:13;;;;;;;3.40;2.13;;;;;;;;;;5040397;28;20124;-81
2022/07/06 01:24:39;;;;;;;2.80;2.10;;;;;;;;;;5058142;28;20037;-80
2022/07/06 01:27:05;;;;;;;3.47;2.03;;;;;;;;;;5040788;28;20031;-81
2022/07/06 01:29:32;;;;;;;3.95;2.17;;;;;;;;;;5038547;28;20033;-81
2022/07/06 01:31:58;;;;;;;3.42;2.20;;;;;;;;;;5056966;28;20639;-82
2022/07/06 01:34:24;;;;;;;4.40;2.00;;;;;;;;;;5042146;28;20471;-80
2022/07/06 01:36:50;;;;;;;3.17;2.17;;;;;;;;;;5039450;28;20082;-80
2022/07/06 01:39:16;;;;;;;4.60;2.10;;;;;;;;;;5039882;28;20032;-81
2022/07/06 01:41:42;;;;;;;5.43;2.70;;;;;;;;;;5040778;28;20024;-81
2022/07/06 01:44:09;;;;;;;3.53;2.20;;;;;;;;;;5037095;28;20033;-80
2022/07/06 01:46:35;;;;;;;2.75;2.28;;;;;;;;;;5038831;28;20030;-80
2022/07/06 01:49:01;;;;;;;2.95;2.17;;;;;;;;;;5054479;28;20419;-81
2022/07/06 01:51:27;;;;;;;2.97;2.13;;;;;;;;;;5041664;28;20021;-81
2022/07/06 01:53:53;;;;;;;4.53;2.20;;;;;;;;;;5042233;28;20040;-80
2022/07/06 01:56:20;;;;;;;3.10;2.17;;;;;;;;;;5052205;28;20021;-80
2022/07/06 01:58:47;;;;;;;3.80;2.20;;;;;;;;;;5037772;28;20020;-81
2022/07/06 02:01:17;;;;;;;5.63;2.05;;;;;;;;;;5056431;28;20127;-81
2022/07/06 02:03:43;;;;;;;4.22;2.00;;;;;;;;;;5042630;28;20048;-81
2022/07/06 02:06:09;;;;;;;3.75;2.35;;;;;;;;;;5042443;28;20112;-82
2022/07/06 02:08:36;;;;;;;2.65;2.28;;;;;;;;;;5053119;28;20029;-81
2022/07/06 02:11:06;;;;;;;3.17;2.28;;;;;;;;;;5052506;28;20034;-81
2022/07/06 02:13:32;;;;;;;4.10;1.90;;;;;;;;;;5055804;28;20526;-83
2022/07/06 02:15:58;;;;;;;4.68;2.10;;;;;;;;;;5055265;28;20029;-81
2022/07/06 02:18:24;;;;;;;3.08;2.15;;;;;;;;;;5056631;28;20416;-80
2022/07/06 02:20:50;;;;;;;3.03;2.03;;;;;;;;;;5036675;28;20061;-81
2022/07/06 02:23:16;;;;;;;3.70;2.20;;;;;;;;;;5038505;28;20049;-81
2022/07/06 02:25:42;;;;;;;3.55;2.03;;;;;;;;;;5052049;28;20029;-80
2022/07/06 02:28:08;;;;;;;4.90;2.35;;;;;;;;;;5039675;28;20105;-81
2022/07/06 02:30:34;;;;;;;4.57;2.60;;;;;;;;;;5056022;28;20386;-81
2022/07/06 02:33:00;;;;;;;3.40;2.45;;;;;;;;;;5056703;28;20562;-81
2022/07/06 02:35:26;;;;;;;4.10;2.20;;;;;;;;;;5035910;28;20032;-81
2022/07/06 02:37:52;;;;;;;4.57;2.70;;;;;;;;;;5036627;28;20062;-80
2022/07/06 02:40:18;;;;;;;2.58;2.38;;;;;;;;;;5038941;28;20029;-81
2022/07/06 02:42:44;;;;;;;3.42;2.70;;;;;;;;;;5058227;28;20494;-81
2022/07/06 02:45:10;;;;;;;3.35;2.13;;;;;;;;;;5055357;28;20100;-81
2022/07/06 02:47:37;;;;;;;4.18;2.30;;;;;;;;;;5040739;28;20033;-80
2022/07/06 02:50:04;;;;;;;4.05;2.60;;;;;;;;;;5036613;28;20033;-80
2022/07/06 02:52:30;;;;;;;3.65;2.42;;;;;;;;;;5038989;28;20032;-81
2022/07/06 02:54:56;;;;;;;2.78;2.22;;;;;;;;;;5035924;28;20026;-82
2022/07/06 02:57:21;;;;;;;3.78;2.30;;;;;;;;;;5045211;28;20025;-82
2022/07/06 02:59:49;;;;;;;3.45;2.42;;;;;;;;;;5057295;28;20116;-80
2022/07/06 03:02:16;;;;;;;3.10;2.38;;;;;;;;;;5052562;28;20486;-80
2022/07/06 03:04:42;;;;;;;4.13;2.60;;;;;;;;;;5038326;28;20382;-81
2022/07/06 03:07:08;;;;;;;5.03;2.40;;;;;;;;;;5041750;28;20830;-82
2022/07/06 03:09:34;;;;;;;4.80;2.80;;;;;;;;;;5035892;28;20026;-80
2022/07/06 03:12:00;;;;;;;3.25;2.25;;;;;;;;;;5035356;28;20036;-80
2022/07/06 03:14:26;;;;;;;3.45;2.40;;;;;;;;;;5041597;28;20021;-80
2022/07/06 03:16:52;;;;;;;3.30;2.40;;;;;;;;;;5042250;28;20028;-81
2022/07/06 03:19:18;;;;;;;4.57;2.60;;;;;;;;;;5056036;28;20029;-82
2022/07/06 03:21:44;;;;;;;5.13;2.60;;;;;;;;;;5052373;28;20072;-81
2022/07/06 03:24:10;;;;;;;4.63;2.80;;;;;;;;;;5039397;28;20387;-83
2022/07/06 03:26:36;;;;;;;3.22;2.53;;;;;;;;;;5039962;28;20033;-81
2022/07/06 03:29:02;;;;;;;3.60;2.78;;;;;;;;;;5034404;28;20048;-80
2022/07/06 03:31:28;;;;;;;3.25;2.67;;;;;;;;;;5039124;28;20021;-81
2022/07/06 03:33:54;;;;;;;3.33;2.50;;;;;;;;;;5054302;28;20490;-82
2022/07/06 03:36:20;;;;;;;4.53;2.78;;;;;;;;;;5035824;28;20090;-81
2022/07/06 03:38:46;;;;;;;3.03;2.72;;;;;;;;;;5051530;28;20021;-80
2022/07/06 03:41:12;;;;;;;3.78;2.58;;;;;;;;;;5042611;28;20033;-80
2022/07/06 03:43:38;;;;;;;3.42;2.58;;;;;;;;;;5050364;28;20360;-81
2022/07/06 03:46:04;;;;;;;4.75;2.92;;;;;;;;;;5038764;28;20373;-81
2022/07/06 03:48:30;;;;;;;2.95;2.65;;;;;;;;;;5037240;28;20032;-80
2022/07/06 03:50:56;;;;;;;2.75;2.55;;;;;;;;;;5038110;28;20033;-80
2022/07/06 03:53:22;;;;;;;4.25;2.60;;;;;;;;;;5035751;28;20024;-83
2022/07/06 03:56:27;;;;;;;5.97;2.90;;;;;;;;;;5038466;28;20033;-82
2022/07/06 03:58:34;;;;;;;3.65;3.13;;;;;;;;;;5038995;28;20135;-80
2022/07/06 04:01:00;;;;;;;5.10;3.10;;;;;;;;;;5054830;28;20375;-80
2022/07/06 04:03:26;;;;;;;4.15;3.30;;;;;;;;;;5037356;28;20033;-80
2022/07/06 04:05:53;;;;;;;4.95;3.63;;;;;;;;;;5052170;28;20038;-81
2022/07/06 04:08:19;;;;;;;6.07;3.45;;;;;;;;;;5041127;28;20028;-81
2022/07/06 04:10:45;;;;;;;4.40;3.25;;;;;;;;;;5061173;28;20061;-80
2022/07/06 04:13:11;;;;;;;4.78;3.78;;;;;;;;;;5034524;28;20675;-81
2022/07/06 04:15:37;;;;;;;6.45;3.80;;;;;;;;;;5035831;28;20075;-80
2022/07/06 04:18:04;;;;;;;5.65;3.90;;;;;;;;;;5052257;28;20475;-83
2022/07/06 04:20:30;;;;;;;4.13;3.72;;;;;;;;;;5051550;28;20148;-80
2022/07/06 04:22:56;;;;;;;5.45;3.47;;;;;;;;;;5040986;28;20045;-80
2022/07/06 04:25:22;;;;;;;4.90;3.25;;;;;;;;;;5054986;28;20034;-80
2022/07/06 04:27:48;;;;;;;6.55;3.50;;;;;;;;;;5055808;28;20422;-80
2022/07/06 04:30:14;;;;;;;4.20;3.55;;;;;;;;;;5040794;28;20021;-81
2022/07/06 04:32:40;;;;;;;5.70;3.60;;;;;;;;;;5038442;28;20025;-80
2022/07/06 04:35:06;;;;;;;4.75;3.53;;;;;;;;;;5040518;28;20031;-81
2022/07/06 04:37:32;;;;;;;5.72;3.90;;;;;;;;;;5057843;28;20021;-80
2022/07/06 04:39:58;;;;;;;6.95;3.70;;;;;;;;;;5057782;28;20092;-81
2022/07/06 04:42:25;;;;;;;6.45;4.03;;;;;;;;;;5042873;28;20029;-80
2022/07/06 04:44:53;;;;;;;5.32;3.35;;;;;;;;;;5042401;28;20482;-81
2022/07/06 04:47:19;;;;;;;;;;;;;;;;;;5041371;28;20052;-80
2022/07/06 04:49:45;;;;;;;4.20;3.28;;;;;;;;;;5057954;28;19971;-81
2022/07/06 04:52:11;;;;;;;4.88;3.67;;;;;;;;;;5044253;28;20192;-81
2022/07/06 04:54:37;;;;;;;4.93;3.90;;;;;;;;;;5044545;28;20036;-81
2022/07/06 04:57:03;;;;;;;5.68;4.15;;;;;;;;;;5040778;28;20017;-82
2022/07/06 04:59:29;;;;;;;5.82;4.10;;;;;;;;;;5056207;28;20634;-80
2022/07/06 05:01:55;;;;;;;4.07;3.33;;;;;;;;;;5042601;28;20041;-81
2022/07/06 05:04:23;;;;;;;5.55;3.58;;;;;;;;;;5040512;28;20076;-80
2022/07/06 05:06:49;;;;;;;7.13;3.63;;;;;;;;;;5040231;28;20021;-81
2022/07/06 05:09:15;;;;;;;7.40;4.28;;;;;;;;;;5056831;28;20029;-80
2022/07/06 05:11:41;;;;;;;3.97;3.58;;;;;;;;;;5054588;28;20033;-80
2022/07/06 05:14:08;;;;;;;5.63;3.65;;;;;;;;;;5041996;28;20040;-80
2022/07/06 05:16:34;;;;;;;5.47;3.95;;;;;;;;;;5037754;28;20447;-81
2022/07/06 05:19:00;;;;;;;5.60;3.65;;;;;;;;;;5057432;28;20025;-81
2022/07/06 05:21:26;;;;;;;6.15;3.63;;;;;;;;;;5052903;28;20028;-80
2022/07/06 05:23:52;;;;;;;8.15;4.25;;;;;;;;;;5057254;28;20053;-82
2022/07/06 05:26:18;;;;;;;4.40;3.78;;;;;;;;;;5043346;28;20029;-83
2022/07/06 05:28:44;;;;;;;6.28;3.78;;;;;;;;;;5040208;28;20059;-81
2022/07/06 05:31:10;;;;;;;6.30;3.55;;;;;;;;;;5039568;28;20057;-81
2022/07/06 05:33:36;;;;;;;9.32;3.97;;;;;;;;;;5037660;28;20041;-81
2022/07/06 05:36:01;;;;;;;4.97;3.67;;;;;;;;;;5037099;28;20059;-81
2022/07/06 05:38:27;;;;;;;6.80;3.20;;;;;;;;;;5035564;28;20028;-80
2022/07/06 05:40:53;;;;;;;7.00;3.72;;;;;;;;;;5052118;28;20025;-80
2022/07/06 05:43:19;;;;;;;4.57;3.72;;;;;;;;;;5042538;28;20479;-79
2022/07/06 05:45:45;;;;;;;4.55;3.30;;;;;;;;;;5054540;28;20078;-82
2022/07/06 05:50:56;;;;;;;5.32;3.83;;;;;;;;;;5039019;28;20039;-80
2022/07/06 05:53:22;;;;;;;6.47;3.60;;;;;;;;;;5055648;28;20025;-81
2022/07/06 05:55:48;;;;;;;5.32;3.10;;;;;;;;;;5037878;28;20391;-81
2022/07/06 05:58:15;;;;;;;6.13;3.72;;;;;;;;;;5052918;28;20029;-81
2022/07/06 06:00:41;;;;;;;3.97;3.03;;;;;;;;;;5040834;28;20028;-81
2022/07/06 06:03:07;;;;;;;4.97;3.42;;;;;;;;;;5040084;28;20102;-81
2022/07/06 06:05:33;;;;;;;5.18;3.10;;;;;;;;;;5043930;28;20037;-81
2022/07/06 06:07:59;;;;;;;7.28;3.30;;;;;;;;;;5040729;28;20024;-82
2022/07/06 06:10:25;;;;;;;4.82;3.38;;;;;;;;;;5058976;28;20032;-82
2022/07/06 06:12:51;;;;;;;6.25;4.03;;;;;;;;;;5053847;28;20027;-83
2022/07/06 06:15:17;;;;;;;5.40;3.65;;;;;;;;;;5042753;28;20036;-81
2022/07/06 06:17:43;;;;;;;5.15;3.35;;;;;;;;;;5056745;28;20024;-80
2022/07/06 06:20:11;;;;;;;4.82;3.13;;;;;;;;;;5036423;28;20032;-81
2022/07/06 06:22:46;;;;;;;7.70;3.47;;;;;;;;;;5054363;28;20149;-80
2022/07/06 06:25:13;;;;;;;5.85;3.40;;;;;;;;;;5040261;28;20039;-81
2022/07/06 06:27:39;;;;;;;6.18;3.67;;;;;;;;;;5054667;28;20021;-82
2022/07/06 06:30:05;;;;;;;4.82;2.97;;;;;;;;;;5055207;28;20033;-80
2022/07/06 06:32:31;;;;;;;4.80;2.65;;;;;;;;;;5040715;28;20029;-83
2022/07/06 06:34:57;;;;;;;4.45;2.63;;;;;;;;;;5036379;28;20036;-82
2022/07/06 06:37:23;;;;;;;4.20;2.40;;;;;;;;;;5056656;28;20052;-82
2022/07/06 06:39:49;;;;;;;4.03;2.10;;;;;;;;;;5056252;28;20033;-80
2022/07/06 06:42:14;;;;;;;2.55;1.95;;;;;;;;;;5055042;28;20044;-82
2022/07/06 06:44:40;;;;;;;5.10;2.45;;;;;;;;;;5038209;28;20037;-81
2022/07/06 06:47:06;;;;;;;4.90;2.08;;;;;;;;;;5050973;28;20029;-81
2022/07/06 06:49:32;;;;;;;4.45;2.20;;;;;;;;;;5059784;28;20082;-82
2022/07/06 06:51:58;;;;;;;5.68;2.25;;;;;;;;;;5031756;28;20025;-81
2022/07/06 06:54:24;;;;;;;4.18;2.10;;;;;;;;;;5047489;28;20029;-81
2022/07/06 06:56:50;;;;;;;5.38;2.35;;;;;;;;;;5052281;28;20110;-84
2022/07/06 06:59:16;;;;;;;4.78;1.92;;;;;;;;;;5038514;28;20053;-81
2022/07/06 07:01:42;;;;;;;5.88;2.10;;;;;;;;;;5040028;28;20021;-81
2022/07/06 07:04:08;;;;;;;3.25;1.95;;;;;;;;;;5034309;28;20398;-80
2022/07/06 07:06:34;;;;;;;3.88;1.98;;;;;;;;;;5055873;28;20032;-82
2022/07/06 07:09:00;;;;;;;6.28;1.90;;;;;;;;;;5036462;28;20025;-80
2022/07/06 07:11:26;;;;;;;4.57;1.98;;;;;;;;;;5058217;28;20017;-81
2022/07/06 07:13:52;;;;;;;2.45;1.40;;;;;;;;;;5053626;28;20048;-82
2022/07/06 07:16:18;;;;;;;1.65;1.27;;;;;;;;;;5051159;28;20025;-81
2022/07/06 07:18:44;;;;;;;3.60;1.90;;;;;;;;;;5038167;28;20094;-82
2022/07/06 07:21:10;;;;;;;3.33;1.48;;;;;;;;;;5036961;28;21927;-80
2022/07/06 07:23:36;;;;;;;2.55;1.50;;;;;;;;;;5032411;28;20052;-82
2022/07/06 07:26:02;;;;;;;2.55;1.80;;;;;;;;;;5041726;28;20025;-82
2022/07/06 07:28:28;;;;;;;2.47;1.58;;;;;;;;;;5037336;28;20385;-82
2022/07/06 07:30:54;;;;;;;5.53;2.28;;;;;;;;;;5040712;28;20029;-81
2022/07/06 07:33:20;;;;;;;5.63;1.92;;;;;;;;;;5039633;28;20418;-80
2022/07/06 07:35:46;;;;;;;3.92;2.05;;;;;;;;;;5053488;28;20442;-80
2022/07/06 07:38:12;;;;;;;3.28;1.90;;;;;;;;;;5035349;28;20033;-83
2022/07/06 07:40:38;;;;;;;3.90;2.08;;;;;;;;;;5039098;28;20037;-81
2022/07/06 07:43:04;;;;;;;4.97;1.95;;;;;;;;;;5053178;28;20125;-82
2022/07/06 07:45:30;;;;;;;5.65;1.88;;;;;;;;;;5055026;28;20163;-82
2022/07/06 07:47:56;;;;;;;3.35;1.75;;;;;;;;;;5036729;28;20567;-82
2022/07/06 07:50:22;;;;;;;4.60;1.70;;;;;;;;;;5053492;28;20127;-85
2022/07/06 07:52:48;;;;;;;6.95;2.80;;;;;;;;;;5039164;28;20080;-81
2022/07/06 07:55:14;;;;;;;3.40;1.83;;;;;;;;;;5042048;28;20051;-80
2022/07/06 07:57:40;;;;;;;4.13;1.90;;;;;;;;;;5058608;28;20025;-88
2022/07/06 08:00:06;;;;;;;3.95;1.75;;;;;;;;;;5060786;28;20546;-87
2022/07/06 08:02:32;;;;;;;3.35;1.88;;;;;;;;;;5038962;28;20025;-87
2022/07/06 08:04:58;;;;;;;3.08;1.88;;;;;;;;;;5043798;28;20720;-87
2022/07/06 08:07:24;;;;;;;4.07;2.00;;;;;;;;;;5042884;28;20028;-85
2022/07/06 08:09:50;;;;;;;4.75;2.00;;;;;;;;;;5045230;28;20045;-87
2022/07/06 08:12:16;;;;;;;3.38;1.73;;;;;;;;;;5041360;28;20043;-87
2022/07/06 08:14:42;;;;;;;2.90;1.45;;;;;;;;;;5040402;28;20025;-86
2022/07/06 08:17:08;;;;;;;6.45;1.98;;;;;;;;;;5040318;28;20459;-85
2022/07/06 08:19:34;;;;;;;4.68;1.38;;;;;;;;;;5064412;28;20451;-86
2022/07/06 08:22:00;;;;;;;4.75;1.60;;;;;;;;;;5056225;28;20037;-86
2022/07/06 08:24:26;;;;;;;7.00;1.48;;;;;;;;;;5038580;28;20064;-86
2022/07/06 08:26:52;;;;;;;2.67;1.55;;;;;;;;;;5041729;28;20486;-79
2022/07/06 08:29:18;;;;;;;1.95;1.25;;;;;;;;;;5046219;28;20060;-80
2022/07/06 08:31:44;;;;;;;1.83;1.00;;;;;;;;;;5055964;28;20025;-82
2022/07/06 08:34:10;;;;;;;1.60;0.70;;;;;;;;;;5056285;28;20045;-82
2022/07/06 08:36:36;;;;;;;1.55;0.50;;;;;;;;;;5036683;28;20029;-82
2022/07/06 08:39:02;;;;;;;2.15;0.60;;;;;;;;;;5040398;28;20028;-82
2022/07/06 08:41:29;;;;;;;3.25;1.20;;;;;;;;;;5043448;28;20072;-80
2022/07/06 08:43:55;;;;;;;2.28;1.20;;;;;;;;;;5041532;28;20526;-79
2022/07/06 08:46:22;;;;;;;1.65;0.55;;;;;;;;;;5056661;28;20029;-79
2022/07/06 08:48:48;;;;;;;1.50;0.70;;;;;;;;;;5040532;28;20028;-79
2022/07/06 08:51:14;;;;;;;1.77;0.60;;;;;;;;;;5037197;28;20394;-80
2022/07/06 08:53:45;;;;;;;1.60;0.52;;;;;;;;;;5038774;28;20029;-80
2022/07/06 08:56:11;;;;;;;1.83;0.60;;;;;;;;;;5039009;28;20593;-80
2022/07/06 08:58:41;;;;;;;1.20;0.57;;;;;;;;;;5043786;28;20096;-80
2022/07/06 09:01:07;;;;;;;2.28;0.60;;;;;;;;;;5040103;28;20026;-80
2022/07/06 09:03:33;;;;;;;0.98;0.40;;;;;;;;;;5039127;28;20059;-80
2022/07/06 09:06:01;;;;;;;2.22;0.38;;;;;;;;;;5038481;28;20116;-79
2022/07/06 09:08:28;;;;;;;;;;;;;;;;;;5038455;28;20052;-81
2022/07/06 09:10:54;;;;;;;1.55;0.52;;;;;;;;;;5041763;28;19909;-81
2022/07/06 09:13:20;;;;;;;1.63;0.77;;;;;;;;;;5054299;28;20037;-81
2022/07/06 09:15:46;;;;;;;1.67;0.50;;;;;;;;;;5042316;28;20160;-81
2022/07/06 09:18:12;;;;;;;0.75;0.38;;;;;;;;;;5037522;28;20082;-81
2022/07/06 09:20:38;;;;;;;0.40;0.40;;;;;;;;;;5039132;28;20367;-80
2022/07/06 09:23:06;;;;;;;1.55;0.50;;;;;;;;;;5035758;28;20052;-82
2022/07/06 09:25:32;;;;;;;2.67;0.55;;;;;;;;;;5047685;28;20187;-84
2022/07/06 09:27:59;;;;;;;1.50;0.50;;;;;;;;;;5038233;28;20021;-80
2022/07/06 09:30:26;;;;;;;0.88;0.50;;;;;;;;;;5054406;28;20099;-81
2022/07/06 09:32:53;;;;;;;0.98;0.60;;;;;;;;;;5060388;28;20029;-82
2022/07/06 09:35:29;;;;;;;0.82;0.50;;;;;;;;;;5062711;28;20044;-86
2022/07/06 09:38:14;;;;;;;1.20;0.40;;;;;;;;;;5038847;28;20033;-81
2022/07/06 09:40:44;;;;;;;1.80;0.60;;;;;;;;;;5054087;28;20416;-82
2022/07/06 09:43:21;;;;;;;2.03;0.60;;;;;;;;;;5034939;28;20108;-82
2022/07/06 09:45:49;;;;;;;1.50;0.60;;;;;;;;;;5055604;28;20176;-83
2022/07/06 09:48:22;;;;;;;1.20;0.70;;;;;;;;;;5041392;28;20037;-83
2022/07/06 09:50:53;;;;;;;5.78;0.60;;;;;;;;;;5037421;28;20412;-83
2022/07/06 09:53:20;;;;;;;2.83;0.70;;;;;;;;;;5038447;28;20096;-82
2022/07/06 09:55:49;;;;;;;0.90;0.63;;;;;;;;;;5041804;28;20028;-82
2022/07/06 09:58:16;;;;;;;0.70;0.50;;;;;;;;;;5041467;28;20428;-82
2022/07/06 10:00:42;;;;;;;2.30;0.50;;;;;;;;;;5045108;28;20024;-82
2022/07/06 10:03:09;;;;;;;1.50;0.70;;;;;;;;;;5042257;28;20096;-82
2022/07/06 10:05:39;;;;;;;0.82;0.50;;;;;;;;;;5053261;28;20188;-82
2022/07/06 10:08:05;;;;;;;2.53;0.55;;;;;;;;;;5038056;28;20033;-82
2022/07/06 10:10:32;;;;;;;2.50;0.50;;;;;;;;;;5055418;28;20119;-82
2022/07/06 10:12:59;;;;;;;1.70;0.80;;;;;;;;;;5040160;28;20032;-83
2022/07/06 10:15:27;;;;;;;0.82;0.50;;;;;;;;;;5063324;28;20021;-82
2022/07/06 10:17:54;;;;;;;0.40;0.40;;;;;;;;;;5043108;28;20474;-82
2022/07/06 10:20:20;;;;;;;0.88;0.60;;;;;;;;;;5040911;28;20031;-82
2022/07/06 10:22:48;;;;;;;3.83;0.80;;;;;;;;;;5057379;28;20108;-83
2022/07/06 10:25:16;;;;;;;0.70;0.57;;;;;;;;;;5056116;28;20295;-82
2022/07/06 10:27:43;;;;;;;0.55;0.45;;;;;;;;;;5056720;28;20025;-82
2022/07/06 10:30:09;;;;;;;1.90;0.50;;;;;;;;;;5038864;28;20064;-82
2022/07/06 10:32:36;;;;;;;2.20;0.60;;;;;;;;;;5037526;28;20269;-82
2022/07/06 10:35:02;;;;;;;2.58;0.52;;;;;;;;;;5054494;28;20026;-82
2022/07/06 10:37:28;;;;;;;1.98;0.57;;;;;;;;;;5055222;28;20039;-82
2022/07/06 10:42:43;;;;;;;0.60;0.50;;;;;;;;;;5037166;28;20040;-82
2022/07/06 10:45:11;;;;;;;1.30;0.60;;;;;;;;;;5054056;28;20590;-82
2022/07/06 10:47:38;;;;;;;2.08;0.73;;;;;;;;;;5052418;28;20100;-82
2022/07/06 10:50:05;;;;;;;1.95;0.70;;;;;;;;;;5041852;28;20033;-82
2022/07/06 10:52:49;;;;;;;1.67;0.70;;;;;;;;;;5039293;28;20036;-82
2022/07/06 10:55:29;;;;;;;1.17;0.60;;;;;;;;;;5056004;28;20027;-83
2022/07/06 10:57:56;;;;;;;4.00;0.70;;;;;;;;;;5057082;28;20024;-82
2022/07/06 11:00:21;;;;;;;1.05;0.60;;;;;;;;;;5040723;28;20203;-82
2022/07/06 11:02:47;;;;;;;2.88;0.90;;;;;;;;;;5053294;28;20460;-82
2022/07/06 11:05:33;;;;;;;1.45;0.68;;;;;;;;;;5052998;28;20132;-82
2022/07/06 11:08:02;;;;;;;1.95;0.85;;;;;;;;;;5054619;28;20059;-82
2022/07/06 11:10:28;;;;;;;1.55;0.55;;;;;;;;;;5040057;28;20375;-82
2022/07/06 11:13:00;;;;;;;2.17;0.50;;;;;;;;;;5037876;28;20025;-82
2022/07/06 11:15:45;;;;;;;2.95;0.45;;;;;;;;;;5036523;28;20026;-83
2022/07/06 11:18:14;;;;;;;0.88;0.50;;;;;;;;;;5050634;28;20532;-82
2022/07/06 11:20:40;;;;;;;1.75;0.70;;;;;;;;;;5040535;28;20473;-82
2022/07/06 11:23:06;;;;;;;1.23;0.50;;;;;;;;;;5037734;28;20053;-83
2022/07/06 11:25:32;;;;;;;3.20;0.70;;;;;;;;;;5035848;28;20486;-82
2022/07/06 11:27:58;;;;;;;2.38;0.70;;;;;;;;;;5037146;28;20020;-82
2022/07/06 11:30:25;;;;;;;0.70;0.52;;;;;;;;;;5038883;28;20040;-82
2022/07/06 11:32:51;;;;;;;2.08;0.60;;;;;;;;;;5055240;28;20036;-82
2022/07/06 11:35:23;;;;;;;2.05;0.88;;;;;;;;;;5053736;28;20028;-85
2022/07/06 11:37:49;;;;;;;1.95;0.70;;;;;;;;;;5038068;28;20221;-83
2022/07/06 11:40:18;;;;;;;1.85;0.52;;;;;;;;;;5036903;28;20032;-83
2022/07/06 11:42:54;;;;;;;0.93;0.60;;;;;;;;;;5039353;28;20025;-84
2022/07/06 11:45:27;;;;;;;1.08;0.60;;;;;;;;;;5057167;28;20072;-84
2022/07/06 11:48:09;;;;;;;1.27;0.50;;;;;;;;;;5053855;28;20032;-85
2022/07/06 11:50:35;;;;;;;0.43;0.43;;;;;;;;;;5032897;28;20056;-83
2022/07/06 11:53:01;;;;;;;1.17;0.70;;;;;;;;;;5034441;28;20487;-83
2022/07/06 11:55:29;;;;;;;0.60;0.60;;;;;;;;;;5034357;28;20032;-84
2022/07/06 11:57:57;;;;;;;1.55;0.60;;;;;;;;;;5034466;28;20435;-83
2022/07/06 12:00:23;;;;;;;0.53;0.50;;;;;;;;;;5050515;28;20680;-84
2022/07/06 12:03:01;;;;;;;0.88;0.60;;;;;;;;;;5034853;28;20597;-83
2022/07/06 12:05:33;;;;;;;0.75;0.50;;;;;;;;;;5036523;28;20037;-83
2022/07/06 12:08:06;;;;;;;1.00;0.50;;;;;;;;;;5037731;28;20044;-83
2022/07/06 12:10:34;;;;;;;1.95;0.50;;;;;;;;;;5037289;28;20040;-84
2022/07/06 12:13:04;;;;;;;1.05;0.75;;;;;;;;;;5051150;28;20028;-84
2022/07/06 12:15:30;;;;;;;2.72;0.50;;;;;;;;;;5051399;28;20026;-84
2022/07/06 12:17:56;;;;;;;0.95;0.50;;;;;;;;;;5053929;28;20430;-84
2022/07/06 12:20:22;;;;;;;1.55;0.60;;;;;;;;;;5052728;28;20041;-84
2022/07/06 12:22:48;;;;;;;1.10;0.80;;;;;;;;;;5035615;28;20091;-83
2022/07/06 12:25:29;;;;;;;1.85;0.57;;;;;;;;;;5053879;28;20045;-84
2022/07/06 12:27:55;;;;;;;1.20;0.57;;;;;;;;;;5040646;28;20030;-85
2022/07/06 12:30:21;;;;;;;1.02;0.60;;;;;;;;;;5036706;28;20311;-84
2022/07/06 12:32:47;;;;;;;1.05;0.60;;;;;;;;;;5041003;28;20026;-84
2022/07/06 12:35:13;;;;;;;1.10;0.55;;;;;;;;;;5053998;28;20040;-83
2022/07/06 12:37:54;;;;;;;1.10;0.65;;;;;;;;;;5034800;28;20051;-84
2022/07/06 12:40:20;;;;;;;0.70;0.50;;;;;;;;;;5040610;28;20029;-85
2022/07/06 12:42:47;;;;;;;1.00;0.63;;;;;;;;;;5038400;28;20029;-84
2022/07/06 12:45:13;;;;;;;1.20;0.52;;;;;;;;;;5042097;28;20086;-86
2022/07/06 12:47:42;;;;;;;2.28;0.80;;;;;;;;;;5043710;28;20033;-81
2022/07/06 12:50:10;;;;;;;1.38;0.60;;;;;;;;;;5054305;28;20028;-85
2022/07/06 12:52:36;;;;;;;1.55;0.60;;;;;;;;;;5037707;28;20022;-84
2022/07/06 12:55:02;;;;;;;2.03;0.70;;;;;;;;;;5054794;28;20360;-84
2022/07/06 12:57:42;;;;;;;1.00;0.60;;;;;;;;;;5053705;28;20117;-85
2022/07/06 13:00:08;;;;;;;1.15;0.60;;;;;;;;;;5054918;28;20368;-85
2022/07/06 13:02:38;;;;;;;1.35;0.60;;;;;;;;;;5037245;28;20113;-85
2022/07/06 13:05:04;;;;;;;1.20;0.68;;;;;;;;;;5040413;28;20033;-83
2022/07/06 13:07:31;;;;;;;1.77;0.70;;;;;;;;;;5052215;28;20052;-85
2022/07/06 13:09:58;;;;;;;1.67;0.80;;;;;;;;;;5045683;28;20032;-85
2022/07/06 13:12:24;;;;;;;1.35;0.60;;;;;;;;;;5041529;28;20098;-85
2022/07/06 13:14:51;;;;;;;1.67;0.60;;;;;;;;;;5055135;28;20376;-84
2022/07/06 13:17:18;;;;;;;1.65;0.60;;;;;;;;;;5042413;28;20068;-85
2022/07/06 13:19:44;;;;;;;1.75;0.70;;;;;;;;;;5040015;28;20056;-84
2022/07/06 13:22:10;;;;;;;1.52;0.60;;;;;;;;;;5052358;28;20037;-83
2022/07/06 13:24:36;;;;;;;1.42;0.70;;;;;;;;;;5051698;28;20045;-83
2022/07/06 13:27:02;;;;;;;1.80;0.60;;;;;;;;;;5038939;28;20033;-84
2022/07/06 13:29:28;;;;;;;0.90;0.70;;;;;;;;;;5037763;28;20482;-84
2022/07/06 13:31:54;;;;;;;1.40;0.80;;;;;;;;;;5036749;28;20360;-84
2022/07/06 13:34:20;;;;;;;1.23;0.70;;;;;;;;;;5039039;28;20086;-83
2022/07/06 13:36:46;;;;;;;1.08;0.63;;;;;;;;;;5034615;28;20025;-84
2022/07/06 13:39:12;;;;;;;2.10;0.65;;;;;;;;;;5036667;28;20025;-83
2022/07/06 13:41:39;;;;;;;0.93;0.60;;;;;;;;;;5041985;28;20425;-84
2022/07/06 13:44:05;;;;;;;1.75;0.70;;;;;;;;;;5042484;28;20041;-84
2022/07/06 13:46:31;;;;;;;2.50;0.73;;;;;;;;;;5039191;28;20463;-84
2022/07/06 13:48:58;;;;;;;2.65;0.85;;;;;;;;;;5056384;28;20357;-83
2022/07/06 13:51:26;;;;;;;3.30;1.27;;;;;;;;;;5042466;28;20013;-83
2022/07/06 13:53:52;;;;;;;2.47;1.10;;;;;;;;;;5035144;28;20086;-84
2022/07/06 13:56:18;;;;;;;1.88;0.90;;;;;;;;;;5053138;28;20065;-84
2022/07/06 13:58:44;;;;;;;1.13;0.70;;;;;;;;;;5047537;28;20025;-83
2022/07/06 14:01:11;;;;;;;3.58;0.90;;;;;;;;;;5032800;28;20502;-84
2022/07/06 14:03:37;;;;;;;2.58;0.70;;;;;;;;;;5034399;28;20116;-84
2022/07/06 14:06:04;;;;;;;1.98;0.93;;;;;;;;;;5038344;28;20089;-83
2022/07/06 14:08:30;;;;;;;1.08;0.77;;;;;;;;;;5035306;28;20033;-84
2022/07/06 14:10:56;;;;;;;2.90;1.00;;;;;;;;;;5039714;28;20040;-84
2022/07/06 14:13:23;;;;;;;2.03;0.90;;;;;;;;;;5039664;28;20080;-85
2022/07/06 14:15:49;;;;;;;3.40;1.08;;;;;;;;;;5038144;28;20021;-82
2022/07/06 14:18:17;;;;;;;1.02;0.88;;;;;;;;;;5038478;28;20040;-80
2022/07/06 14:20:43;;;;;;;3.50;1.23;;;;;;;;;;5055926;28;20029;-79
2022/07/06 14:23:09;;;;;;;1.70;0.88;;;;;;;;;;5037395;28;20538;-80
2022/07/06 14:25:35;;;;;;;2.25;0.90;;;;;;;;;;5040144;28;20041;-80
2022/07/06 14:28:02;;;;;;;2.47;1.20;;;;;;;;;;5036696;28;20100;-79
2022/07/06 14:30:28;;;;;;;1.75;0.90;;;;;;;;;;5058296;28;20144;-80
2022/07/06 14:32:54;;;;;;;2.85;1.00;;;;;;;;;;5037305;28;20356;-79
2022/07/06 14:35:19;;;;;;;1.70;0.90;;;;;;;;;;5038343;28;20075;-80
2022/07/06 14:37:45;;;;;;;3.42;1.00;;;;;;;;;;5040216;28;20037;-79
2022/07/06 14:40:11;;;;;;;1.80;0.73;;;;;;;;;;5036568;28;20031;-80
2022/07/06 14:42:37;;;;;;;2.45;0.90;;;;;;;;;;5040844;28;20474;-79
2022/07/06 14:45:03;;;;;;;2.40;1.10;;;;;;;;;;5059057;28;20264;-79
2022/07/06 14:47:29;;;;;;;1.73;1.10;;;;;;;;;;5052659;28;20036;-79